Time;durP1;ratioP1;P1;durP2;ratioP2;P2;SDS_P1;SDS_P2;PMS_P1;PMS_P2;Temp;Humidity;BMP_temperature;BMP_pressure;BME280_temperature;BME280_humidity;BME280_pressure;Samples;Min_cycle;Max_cycle;Signal;HPM_P1;HPM_P2
2022/09/23 00:00:42;;;;;;;8.83;5.53;;;;;;;;;;4974923;28;20290;-79
2022/09/23 00:03:09;;;;;;;7.83;6.10;;;;;;;;;;4975127;28;20297;-79
2022/09/23 00:05:37;;;;;;;5.57;5.00;;;;;;;;;;4974125;28;20295;-79
2022/09/23 00:08:05;;;;;;;7.63;4.93;;;;;;;;;;4975101;28;20226;-79
2022/09/23 00:10:32;;;;;;;6.83;5.10;;;;;;;;;;4974968;28;20317;-79
2022/09/23 00:12:59;;;;;;;8.07;5.03;;;;;;;;;;4975548;28;20231;-79
2022/09/23 00:15:29;;;;;;;6.20;5.23;;;;;;;;;;4975391;28;20741;-79
2022/09/23 00:17:57;;;;;;;9.00;5.53;;;;;;;;;;4975648;28;20214;-79
2022/09/23 00:20:24;;;;;;;5.97;5.37;;;;;;;;;;4974445;28;20290;-79
2022/09/23 00:22:52;;;;;;;6.90;5.40;;;;;;;;;;4955917;28;20620;-79
2022/09/23 00:25:19;;;;;;;7.27;5.30;;;;;;;;;;4955514;28;20216;-78
2022/09/23 00:27:47;;;;;;;6.70;4.70;;;;;;;;;;4956242;28;20208;-78
2022/09/23 00:30:14;;;;;;;9.23;5.00;;;;;;;;;;4961134;28;20309;-79
2022/09/23 00:32:43;;;;;;;9.43;5.10;;;;;;;;;;4974884;28;20210;-79
2022/09/23 00:35:10;;;;;;;6.30;5.27;;;;;;;;;;4969189;28;20652;-79
2022/09/23 00:37:37;;;;;;;8.87;5.33;;;;;;;;;;4955995;28;20299;-79
2022/09/23 00:40:05;;;;;;;7.57;5.60;;;;;;;;;;4955710;28;20252;-79
2022/09/23 00:42:32;;;;;;;6.40;5.70;;;;;;;;;;4955758;28;20207;-79
2022/09/23 00:45:00;;;;;;;6.77;5.60;;;;;;;;;;4961564;28;20292;-79
2022/09/23 00:47:31;;;;;;;7.50;5.93;;;;;;;;;;4955979;28;20243;-79
2022/09/23 00:50:04;;;;;;;7.53;6.20;;;;;;;;;;4956046;28;20241;-79
2022/09/23 00:52:31;;;;;;;8.37;5.70;;;;;;;;;;4955839;28;20287;-79
2022/09/23 00:54:59;;;;;;;10.30;6.13;;;;;;;;;;4955655;28;20214;-79
2022/09/23 00:57:26;;;;;;;9.80;6.40;;;;;;;;;;4956046;28;20298;-79
2022/09/23 00:59:54;;;;;;;8.60;6.63;;;;;;;;;;4967552;28;20303;-79
2022/09/23 01:02:21;;;;;;;9.13;6.10;;;;;;;;;;4967519;28;20229;-79
2022/09/23 01:04:49;;;;;;;7.93;6.27;;;;;;;;;;4955148;28;20199;-79
2022/09/23 01:07:18;;;;;;;6.93;5.70;;;;;;;;;;4955557;28;20226;-79
2022/09/23 01:09:46;;;;;;;8.43;6.03;;;;;;;;;;4954828;28;20325;-79
2022/09/23 01:12:21;;;;;;;8.07;6.30;;;;;;;;;;4955204;28;20308;-79
2022/09/23 01:14:52;;;;;;;7.73;5.90;;;;;;;;;;4955249;28;20759;-79
2022/09/23 01:17:24;;;;;;;7.80;6.23;;;;;;;;;;4954780;28;20290;-79
2022/09/23 01:20:04;;;;;;;8.27;6.30;;;;;;;;;;4955387;28;20207;-79
2022/09/23 01:22:37;;;;;;;7.60;5.93;;;;;;;;;;4955050;28;20198;-79
2022/09/23 01:25:17;;;;;;;7.37;6.00;;;;;;;;;;4955566;28;20239;-79
2022/09/23 01:27:52;;;;;;;10.90;6.63;;;;;;;;;;4954725;28;20208;-79
2022/09/23 01:30:32;;;;;;;6.93;6.23;;;;;;;;;;4954854;28;20202;-79
2022/09/23 01:33:04;;;;;;;8.13;6.63;;;;;;;;;;4969989;28;20233;-79
2022/09/23 01:35:38;;;;;;;9.17;6.07;;;;;;;;;;4974185;28;20574;-79
2022/09/23 01:38:10;;;;;;;7.03;5.93;;;;;;;;;;4954928;29;20204;-79
2022/09/23 01:40:46;;;;;;;10.10;5.53;;;;;;;;;;4954772;29;20738;-79
2022/09/23 01:43:16;;;;;;;7.17;5.17;;;;;;;;;;4963615;28;20677;-79
2022/09/23 01:45:46;;;;;;;7.87;5.40;;;;;;;;;;4974161;28;20296;-79
2022/09/23 01:48:17;;;;;;;8.40;5.83;;;;;;;;;;4974191;28;20242;-79
2022/09/23 01:50:56;;;;;;;6.70;5.43;;;;;;;;;;4974002;28;20319;-79
2022/09/23 01:53:27;;;;;;;7.43;5.73;;;;;;;;;;4974300;28;20293;-79
2022/09/23 01:55:56;;;;;;;7.70;5.67;;;;;;;;;;4973730;28;20238;-79
2022/09/23 01:58:25;;;;;;;7.87;6.27;;;;;;;;;;4973599;28;20213;-79
2022/09/23 02:00:58;;;;;;;7.87;6.57;;;;;;;;;;4954861;28;20195;-78
2022/09/23 02:03:27;;;;;;;7.47;6.40;;;;;;;;;;4955048;28;20199;-79
2022/09/23 02:05:59;;;;;;;8.73;6.33;;;;;;;;;;4954464;28;20253;-79
2022/09/23 02:08:28;;;;;;;8.37;6.17;;;;;;;;;;4954449;28;20273;-78
2022/09/23 02:10:57;;;;;;;6.30;5.60;;;;;;;;;;4955219;28;20255;-79
2022/09/23 02:13:28;;;;;;;8.43;6.20;;;;;;;;;;4973958;28;20203;-79
2022/09/23 02:16:00;;;;;;;8.03;6.53;;;;;;;;;;4973481;28;20699;-79
2022/09/23 02:18:29;;;;;;;11.23;6.73;;;;;;;;;;4972952;28;20630;-79
2022/09/23 02:20:57;;;;;;;11.40;6.70;;;;;;;;;;4954041;28;20237;-79
2022/09/23 02:23:27;;;;;;;7.67;6.80;;;;;;;;;;4970389;28;20291;-79
2022/09/23 02:25:57;;;;;;;9.37;7.50;;;;;;;;;;4955796;28;20231;-79
2022/09/23 02:28:29;;;;;;;9.13;6.50;;;;;;;;;;4955123;28;20244;-79
2022/09/23 02:31:03;;;;;;;7.13;6.40;;;;;;;;;;4961892;28;20222;-79
2022/09/23 02:33:35;;;;;;;8.90;5.90;;;;;;;;;;4958182;28;20640;-79
2022/09/23 02:36:07;;;;;;;6.60;5.70;;;;;;;;;;4958233;28;20632;-79
2022/09/23 02:38:39;;;;;;;7.47;5.90;;;;;;;;;;4958580;28;20290;-79
2022/09/23 02:41:09;;;;;;;6.90;5.70;;;;;;;;;;4958818;28;20232;-79
2022/09/23 02:43:40;;;;;;;7.07;5.50;;;;;;;;;;4957551;28;20296;-78
2022/09/23 02:46:09;;;;;;;8.53;5.57;;;;;;;;;;4957975;28;20261;-79
2022/09/23 02:48:40;;;;;;;7.23;5.27;;;;;;;;;;4958122;28;20710;-79
2022/09/23 02:51:07;;;;;;;9.60;5.70;;;;;;;;;;4964140;28;20216;-79
2022/09/23 02:53:35;;;;;;;9.80;6.07;;;;;;;;;;4968939;28;20234;-79
2022/09/23 02:56:03;;;;;;;6.83;6.00;;;;;;;;;;4959180;28;20294;-79
2022/09/23 02:58:30;;;;;;;9.33;5.87;;;;;;;;;;4957637;28;20298;-79
2022/09/23 03:01:03;;;;;;;7.20;5.93;;;;;;;;;;4957651;28;20253;-79
2022/09/23 03:03:38;;;;;;;6.97;5.53;;;;;;;;;;4976651;28;20662;-79
2022/09/23 03:06:09;;;;;;;7.57;6.03;;;;;;;;;;4976710;28;20671;-79
2022/09/23 03:08:42;;;;;;;6.80;6.10;;;;;;;;;;4977061;28;20280;-79
2022/09/23 03:11:12;;;;;;;7.20;6.33;;;;;;;;;;4975515;28;20234;-79
2022/09/23 03:13:49;;;;;;;8.60;6.80;;;;;;;;;;4959159;28;20243;-79
2022/09/23 03:16:20;;;;;;;7.93;6.40;;;;;;;;;;4977291;28;20269;-79
2022/09/23 03:18:52;;;;;;;7.17;6.23;;;;;;;;;;4976326;28;20287;-79
2022/09/23 03:21:24;;;;;;;9.07;6.93;;;;;;;;;;4976649;28;20241;-79
2022/09/23 03:23:52;;;;;;;8.43;6.97;;;;;;;;;;4976076;28;20646;-79
2022/09/23 03:26:21;;;;;;;7.90;6.60;;;;;;;;;;4975526;28;20206;-79
2022/09/23 03:28:49;;;;;;;10.27;6.80;;;;;;;;;;4967152;28;20238;-79
2022/09/23 03:31:17;;;;;;;9.03;6.33;;;;;;;;;;4970411;28;20219;-79
2022/09/23 03:33:47;;;;;;;7.97;6.40;;;;;;;;;;4966120;28;20294;-79
2022/09/23 03:39:05;;;;;;;9.67;7.60;;;;;;;;;;4976207;28;20207;-79
2022/09/23 03:41:35;;;;;;;9.87;6.97;;;;;;;;;;4976147;28;20235;-79
2022/09/23 03:44:02;;;;;;;8.67;7.20;;;;;;;;;;4976252;28;20241;-79
2022/09/23 03:46:32;;;;;;;10.17;7.00;;;;;;;;;;4976680;28;20290;-79
2022/09/23 03:49:03;;;;;;;10.20;6.77;;;;;;;;;;4976212;28;20243;-79
2022/09/23 03:51:31;;;;;;;7.70;6.17;;;;;;;;;;4976560;28;20222;-79
2022/09/23 03:53:58;;;;;;;9.70;6.23;;;;;;;;;;4976249;28;20281;-79
2022/09/23 03:56:25;;;;;;;9.27;6.50;;;;;;;;;;4976101;28;20292;-79
2022/09/23 03:58:53;;;;;;;8.83;5.90;;;;;;;;;;4958261;28;20295;-79
2022/09/23 04:01:20;;;;;;;8.30;5.80;;;;;;;;;;4976507;28;20296;-79
2022/09/23 04:03:47;;;;;;;7.10;5.73;;;;;;;;;;4974472;28;20292;-79
2022/09/23 04:06:15;;;;;;;9.80;5.93;;;;;;;;;;4956958;28;20207;-79
2022/09/23 04:08:44;;;;;;;7.23;6.13;;;;;;;;;;4956463;28;20240;-79
2022/09/23 04:11:11;;;;;;;10.53;5.80;;;;;;;;;;4956358;28;20703;-79
2022/09/23 04:13:39;;;;;;;8.03;5.93;;;;;;;;;;4973758;28;20242;-79
2022/09/23 04:16:06;;;;;;;7.10;5.93;;;;;;;;;;4962558;28;20204;-79
2022/09/23 04:18:34;;;;;;;8.57;6.10;;;;;;;;;;4956439;28;20249;-79
2022/09/23 04:21:01;;;;;;;6.70;5.87;;;;;;;;;;4956640;28;20210;-79
2022/09/23 04:23:28;;;;;;;7.40;6.07;;;;;;;;;;4956643;28;20201;-79
2022/09/23 04:25:57;;;;;;;8.23;5.97;;;;;;;;;;4956182;28;20238;-79
2022/09/23 04:28:24;;;;;;;6.73;5.67;;;;;;;;;;4956609;28;20218;-79
2022/09/23 04:30:52;;;;;;;7.83;6.03;;;;;;;;;;4955742;28;20238;-79
2022/09/23 04:33:20;;;;;;;7.03;6.00;;;;;;;;;;4956537;28;20314;-79
2022/09/23 04:35:50;;;;;;;7.23;6.10;;;;;;;;;;4956087;28;20215;-79
2022/09/23 04:38:17;;;;;;;7.37;6.67;;;;;;;;;;4955903;28;20665;-81
2022/09/23 04:40:44;;;;;;;7.57;6.10;;;;;;;;;;4956533;28;20234;-80
2022/09/23 04:43:14;;;;;;;7.67;6.83;;;;;;;;;;4972357;28;20237;-80
2022/09/23 04:45:41;;;;;;;7.87;6.17;;;;;;;;;;4975211;28;20211;-79
2022/09/23 04:48:09;;;;;;;7.70;6.43;;;;;;;;;;4974803;28;20649;-80
2022/09/23 04:50:37;;;;;;;8.40;6.30;;;;;;;;;;4956445;28;20204;-79
2022/09/23 04:53:04;;;;;;;7.53;6.73;;;;;;;;;;4956383;28;20227;-80
2022/09/23 04:55:31;;;;;;;7.60;6.20;;;;;;;;;;4974849;28;20681;-80
2022/09/23 04:57:59;;;;;;;9.27;6.57;;;;;;;;;;4972332;28;20637;-80
2022/09/23 05:00:27;;;;;;;7.63;6.67;;;;;;;;;;4976354;28;20236;-79
2022/09/23 05:02:54;;;;;;;7.73;6.93;;;;;;;;;;4974964;28;20199;-80
2022/09/23 05:05:22;;;;;;;8.53;6.63;;;;;;;;;;4973885;28;20725;-80
2022/09/23 05:07:50;;;;;;;11.33;6.70;;;;;;;;;;4973962;28;20241;-80
2022/09/23 05:10:17;;;;;;;11.97;7.63;;;;;;;;;;4966788;28;20688;-80
2022/09/23 05:12:44;;;;;;;7.90;7.10;;;;;;;;;;4967197;28;20640;-80
2022/09/23 05:15:11;;;;;;;11.10;6.80;;;;;;;;;;4973837;28;20288;-79
2022/09/23 05:17:41;;;;;;;8.77;7.43;;;;;;;;;;4973819;28;20209;-80
2022/09/23 05:20:09;;;;;;;9.07;7.50;;;;;;;;;;4962852;28;20724;-80
2022/09/23 05:22:36;;;;;;;8.53;7.63;;;;;;;;;;4955352;28;20240;-80
2022/09/23 05:25:03;;;;;;;9.60;7.53;;;;;;;;;;4971553;28;20289;-80
2022/09/23 05:27:31;;;;;;;10.43;7.43;;;;;;;;;;4974351;28;20288;-80
2022/09/23 05:29:59;;;;;;;11.17;7.57;;;;;;;;;;4973695;28;20209;-80
2022/09/23 05:32:27;;;;;;;11.20;7.40;;;;;;;;;;4974102;28;20252;-80
2022/09/23 05:34:55;;;;;;;11.20;7.30;;;;;;;;;;4973099;28;20290;-80
2022/09/23 05:37:24;;;;;;;11.27;7.63;;;;;;;;;;4969963;28;20288;-80
2022/09/23 05:39:51;;;;;;;8.53;7.63;;;;;;;;;;4961772;28;20255;-80
2022/09/23 05:42:19;;;;;;;9.40;7.40;;;;;;;;;;4981701;28;20389;-80
2022/09/23 05:44:46;;;;;;;16.87;7.60;;;;;;;;;;4969165;28;20268;-80
2022/09/23 05:47:14;;;;;;;14.47;8.30;;;;;;;;;;4962102;28;20302;-80
2022/09/23 05:49:41;;;;;;;12.90;8.30;;;;;;;;;;4973048;28;20624;-79
2022/09/23 05:52:10;;;;;;;18.17;7.83;;;;;;;;;;4973994;28;20225;-80
2022/09/23 05:54:37;;;;;;;8.73;7.53;;;;;;;;;;4974276;28;20295;-79
2022/09/23 05:57:04;;;;;;;10.73;7.90;;;;;;;;;;4974155;28;20270;-79
2022/09/23 05:59:32;;;;;;;10.87;8.37;;;;;;;;;;4972590;28;20267;-79
2022/09/23 06:02:00;;;;;;;9.83;7.87;;;;;;;;;;4973362;28;20202;-80
2022/09/23 06:04:27;;;;;;;11.33;7.37;;;;;;;;;;4973932;28;20209;-80
2022/09/23 06:06:54;;;;;;;10.90;7.27;;;;;;;;;;4973950;28;20306;-80
2022/09/23 06:09:23;;;;;;;12.77;7.40;;;;;;;;;;4974574;28;20284;-79
2022/09/23 06:11:50;;;;;;;9.60;7.43;;;;;;;;;;4974378;28;20333;-79
2022/09/23 06:14:18;;;;;;;8.30;7.50;;;;;;;;;;4974129;28;20255;-79
2022/09/23 06:16:45;;;;;;;8.00;7.20;;;;;;;;;;4973429;28;20243;-79
2022/09/23 06:19:12;;;;;;;8.23;6.63;;;;;;;;;;4974116;28;20247;-79
2022/09/23 06:21:40;;;;;;;10.00;6.87;;;;;;;;;;4973923;28;20296;-79
2022/09/23 06:24:08;;;;;;;7.50;6.80;;;;;;;;;;4954792;28;20189;-79
2022/09/23 06:26:37;;;;;;;8.23;6.93;;;;;;;;;;4954645;28;20297;-79
2022/09/23 06:29:05;;;;;;;8.50;6.80;;;;;;;;;;4954648;28;20200;-79
2022/09/23 06:31:32;;;;;;;7.20;6.07;;;;;;;;;;4954901;28;20230;-79
2022/09/23 06:34:00;;;;;;;7.87;6.97;;;;;;;;;;4954474;28;20265;-79
2022/09/23 06:36:27;;;;;;;11.23;7.00;;;;;;;;;;4954567;28;20289;-78
2022/09/23 06:38:54;;;;;;;8.67;6.67;;;;;;;;;;4954977;28;20275;-78
2022/09/23 06:41:22;;;;;;;9.83;6.87;;;;;;;;;;4961933;28;20216;-78
2022/09/23 06:43:50;;;;;;;7.30;6.60;;;;;;;;;;4965181;28;20237;-79
2022/09/23 06:46:18;;;;;;;9.30;6.93;;;;;;;;;;4974073;28;20625;-80
2022/09/23 06:48:45;;;;;;;8.90;6.90;;;;;;;;;;4974453;28;20205;-80
2022/09/23 06:51:18;;;;;;;10.43;7.20;;;;;;;;;;4973715;28;20241;-79
2022/09/23 06:53:45;;;;;;;9.47;7.63;;;;;;;;;;4974311;28;20636;-79
2022/09/23 06:56:13;;;;;;;10.30;7.77;;;;;;;;;;4973546;28;20297;-79
2022/09/23 06:58:40;;;;;;;8.60;7.63;;;;;;;;;;4973909;28;20284;-79
2022/09/23 07:01:09;;;;;;;8.67;7.20;;;;;;;;;;4974667;28;20293;-79
2022/09/23 07:03:37;;;;;;;10.10;7.23;;;;;;;;;;4973673;28;20202;-79
2022/09/23 07:06:04;;;;;;;9.40;7.00;;;;;;;;;;4974166;28;20205;-79
2022/09/23 07:08:33;;;;;;;9.07;7.03;;;;;;;;;;4973624;28;20325;-79
2022/09/23 07:11:01;;;;;;;8.37;6.83;;;;;;;;;;4973408;28;20205;-79
2022/09/23 07:13:28;;;;;;;9.20;6.93;;;;;;;;;;4973460;28;20313;-79
2022/09/23 07:15:57;;;;;;;9.30;6.83;;;;;;;;;;4976689;28;20247;-80
2022/09/23 07:18:26;;;;;;;10.33;7.73;;;;;;;;;;4976971;28;20210;-80
2022/09/23 07:20:57;;;;;;;9.40;7.37;;;;;;;;;;4976240;28;20297;-80
2022/09/23 07:23:24;;;;;;;10.53;8.00;;;;;;;;;;4957370;28;20203;-80
2022/09/23 07:25:52;;;;;;;7.30;6.40;;;;;;;;;;4957395;28;20572;-79
2022/09/23 07:28:20;;;;;;;8.47;6.67;;;;;;;;;;4957203;28;20216;-80
2022/09/23 07:30:47;;;;;;;8.97;6.77;;;;;;;;;;4957791;28;20297;-80
2022/09/23 07:33:14;;;;;;;8.10;6.90;;;;;;;;;;4957315;28;20255;-80
2022/09/23 07:35:43;;;;;;;9.40;7.17;;;;;;;;;;4957143;28;20294;-80
2022/09/23 07:38:10;;;;;;;9.13;7.60;;;;;;;;;;4963645;28;20285;-79
2022/09/23 07:40:39;;;;;;;11.70;7.50;;;;;;;;;;4962797;28;20285;-80
2022/09/23 07:43:06;;;;;;;10.17;7.50;;;;;;;;;;4959834;28;20290;-80
2022/09/23 07:45:33;;;;;;;12.73;7.63;;;;;;;;;;4976419;28;20241;-80
2022/09/23 07:48:02;;;;;;;8.20;7.40;;;;;;;;;;4976480;28;20214;-80
2022/09/23 07:50:31;;;;;;;8.67;7.03;;;;;;;;;;4976254;28;20205;-80
2022/09/23 07:53:01;;;;;;;8.63;7.77;;;;;;;;;;4976272;28;20233;-80
2022/09/23 07:55:29;;;;;;;8.97;7.60;;;;;;;;;;4976177;28;20206;-80
2022/09/23 07:57:56;;;;;;;9.23;7.70;;;;;;;;;;4957750;28;20199;-80
2022/09/23 08:00:23;;;;;;;9.40;7.70;;;;;;;;;;4961635;28;20230;-80
2022/09/23 08:02:51;;;;;;;8.77;7.30;;;;;;;;;;4976268;28;20286;-80
2022/09/23 08:05:18;;;;;;;7.83;6.93;;;;;;;;;;4975851;28;20202;-80
2022/09/23 08:07:45;;;;;;;9.33;6.67;;;;;;;;;;4975766;28;20309;-80
2022/09/23 08:10:17;;;;;;;11.27;7.90;;;;;;;;;;4975717;28;20235;-80
2022/09/23 08:12:45;;;;;;;17.90;8.63;;;;;;;;;;4976155;28;20325;-80
2022/09/23 08:15:12;;;;;;;18.00;9.07;;;;;;;;;;4973698;28;20217;-80
2022/09/23 08:17:39;;;;;;;11.17;7.97;;;;;;;;;;4976346;28;20230;-80
2022/09/23 08:20:42;;;;;;;9.10;8.20;;;;;;;;;;4969412;28;20243;-80
2022/09/23 08:22:54;;;;;;;10.17;7.43;;;;;;;;;;4955779;28;20689;-80
2022/09/23 08:25:23;;;;;;;9.80;7.13;;;;;;;;;;4956197;28;20299;-81
2022/09/23 08:27:51;;;;;;;8.60;7.50;;;;;;;;;;4956119;28;20605;-80
2022/09/23 08:30:18;;;;;;;10.03;7.60;;;;;;;;;;4958857;28;20266;-81
2022/09/23 08:32:45;;;;;;;10.27;7.87;;;;;;;;;;4967600;28;20403;-81
2022/09/23 08:35:12;;;;;;;8.27;7.33;;;;;;;;;;4956643;28;20245;-81
2022/09/23 08:37:39;;;;;;;10.80;7.40;;;;;;;;;;4956122;28;20238;-78
2022/09/23 08:40:07;;;;;;;10.17;7.27;;;;;;;;;;4968918;28;20234;-81
2022/09/23 08:42:38;;;;;;;13.37;7.90;;;;;;;;;;4956556;28;20241;-81
2022/09/23 08:45:07;;;;;;;12.90;7.27;;;;;;;;;;4975259;28;20305;-80
2022/09/23 08:47:42;;;;;;;13.30;7.87;;;;;;;;;;4970630;28;20694;-81
2022/09/23 08:50:13;;;;;;;10.60;7.60;;;;;;;;;;4956095;29;20203;-81
2022/09/23 08:52:49;;;;;;;9.47;6.63;;;;;;;;;;4974907;28;20708;-81
2022/09/23 08:55:18;;;;;;;12.80;6.83;;;;;;;;;;4975745;28;20205;-81
2022/09/23 08:57:52;;;;;;;8.07;6.97;;;;;;;;;;4975870;28;20202;-80
2022/09/23 09:00:28;;;;;;;10.17;6.60;;;;;;;;;;4975075;28;20241;-81
2022/09/23 09:02:56;;;;;;;9.40;6.00;;;;;;;;;;4974622;28;20285;-81
2022/09/23 09:05:26;;;;;;;10.07;6.87;;;;;;;;;;4975349;28;20293;-81
2022/09/23 09:07:55;;;;;;;10.90;7.60;;;;;;;;;;4974826;28;20637;-82
2022/09/23 09:10:24;;;;;;;13.67;7.60;;;;;;;;;;4975493;28;20203;-81
2022/09/23 09:12:55;;;;;;;9.77;7.40;;;;;;;;;;4974799;28;20600;-81
2022/09/23 09:15:25;;;;;;;9.57;8.00;;;;;;;;;;4975265;28;20199;-82
2022/09/23 09:18:00;;;;;;;8.43;7.37;;;;;;;;;;4975427;28;20249;-82
2022/09/23 09:20:34;;;;;;;13.63;8.30;;;;;;;;;;4974943;28;20206;-81
2022/09/23 09:23:05;;;;;;;9.03;8.10;;;;;;;;;;4975355;28;20213;-82
2022/09/23 09:25:38;;;;;;;9.87;8.00;;;;;;;;;;4975073;28;20226;-82
2022/09/23 09:28:12;;;;;;;12.70;8.17;;;;;;;;;;4955600;28;20241;-82
2022/09/23 09:30:39;;;;;;;15.63;8.53;;;;;;;;;;4955155;28;20209;-81
2022/09/23 09:33:14;;;;;;;14.03;7.57;;;;;;;;;;4955549;28;20779;-82
2022/09/23 09:35:42;;;;;;;11.20;7.53;;;;;;;;;;4955148;29;20229;-82
2022/09/23 09:38:10;;;;;;;10.17;7.43;;;;;;;;;;4955570;28;20286;-82
2022/09/23 09:40:40;;;;;;;12.13;7.57;;;;;;;;;;4955734;28;20241;-82
2022/09/23 09:43:09;;;;;;;12.83;7.73;;;;;;;;;;4957918;28;20234;-82
2022/09/23 09:45:51;;;;;;;12.03;6.60;;;;;;;;;;4968481;28;20194;-82
2022/09/23 09:48:21;;;;;;;10.43;7.53;;;;;;;;;;4973547;28;20202;-81
2022/09/23 09:50:50;;;;;;;8.10;7.00;;;;;;;;;;4955196;28;20206;-80
2022/09/23 09:53:22;;;;;;;8.50;7.50;;;;;;;;;;4954765;28;20226;-80
2022/09/23 09:55:58;;;;;;;19.83;8.00;;;;;;;;;;4953661;29;20205;-80
2022/09/23 09:58:28;;;;;;;10.13;6.90;;;;;;;;;;4963447;28;20248;-80
2022/09/23 10:00:56;;;;;;;8.77;7.28;;;;;;;;;;4973880;28;20226;-80
2022/09/23 10:03:26;;;;;;;10.02;6.35;;;;;;;;;;4972715;28;20676;-80
2022/09/23 10:06:01;;;;;;;9.25;6.45;;;;;;;;;;4961098;28;20679;-81
2022/09/23 10:08:31;;;;;;;9.60;6.75;;;;;;;;;;4968966;28;20675;-81
2022/09/23 10:11:02;;;;;;;7.70;6.38;;;;;;;;;;4956956;28;20635;-81
2022/09/23 10:13:31;;;;;;;7.85;5.30;;;;;;;;;;4953662;28;20301;-81
2022/09/23 10:15:59;;;;;;;9.63;5.85;;;;;;;;;;4960989;28;20558;-81
2022/09/23 10:18:30;;;;;;;8.45;5.28;;;;;;;;;;4953275;28;20731;-81
2022/09/23 10:21:01;;;;;;;8.07;6.30;;;;;;;;;;4959301;28;20203;-81
2022/09/23 10:23:32;;;;;;;7.43;5.85;;;;;;;;;;4972436;28;20237;-81
2022/09/23 10:26:00;;;;;;;8.52;6.18;;;;;;;;;;4972725;28;20202;-81
2022/09/23 10:28:33;;;;;;;10.95;6.90;;;;;;;;;;4971894;28;20241;-82
2022/09/23 10:31:08;;;;;;;11.73;6.20;;;;;;;;;;4973177;28;20285;-80
2022/09/23 10:33:40;;;;;;;7.82;5.78;;;;;;;;;;4971311;28;20226;-80
2022/09/23 10:36:09;;;;;;;9.23;5.35;;;;;;;;;;4965453;28;20203;-81
2022/09/23 10:38:37;;;;;;;8.20;5.72;;;;;;;;;;4971697;28;20237;-80
2022/09/23 10:46:40;;;;;;;8.18;5.70;;;;;;;;;;4969610;28;20233;-80
2022/09/23 10:49:23;;;;;;;6.97;6.28;;;;;;;;;;4953410;28;20213;-80
2022/09/23 10:51:56;;;;;;;11.43;6.25;;;;;;;;;;4956685;28;20203;-80
2022/09/23 10:54:28;;;;;;;9.35;5.97;;;;;;;;;;4957407;28;20813;-80
2022/09/23 10:56:59;;;;;;;8.10;5.78;;;;;;;;;;4955765;28;20690;-80
2022/09/23 10:59:46;;;;;;;8.02;6.18;;;;;;;;;;4966346;28;20274;-80
2022/09/23 11:02:26;;;;;;;6.80;6.10;;;;;;;;;;4973768;28;20206;-80
2022/09/23 11:05:10;;;;;;;9.93;6.68;;;;;;;;;;4624695;28;9999974;-80
2022/09/23 11:07:39;;;;;;;8.15;6.03;;;;;;;;;;4953329;28;20227;-79
2022/09/23 11:10:36;;;;;;;9.57;6.38;;;;;;;;;;4954770;28;20270;-79
2022/09/23 11:13:06;;;;;;;12.00;6.10;;;;;;;;;;4954575;28;20214;-79
2022/09/23 11:15:41;;;;;;;8.90;5.97;;;;;;;;;;4960990;28;20222;-81
2022/09/23 11:18:22;;;;;;;7.88;6.10;;;;;;;;;;4974215;28;20293;-80
2022/09/23 11:20:55;;;;;;;14.90;6.40;;;;;;;;;;4956527;28;20266;-80
2022/09/23 11:23:35;;;;;;;7.45;6.10;;;;;;;;;;4957029;29;20581;-80
2022/09/23 11:26:09;;;;;;;11.32;7.45;;;;;;;;;;4957070;29;20199;-80
2022/09/23 11:28:47;;;;;;;11.18;7.25;;;;;;;;;;4957600;29;20210;-80
2022/09/23 11:31:20;;;;;;;8.88;7.00;;;;;;;;;;4956933;29;20289;-80
2022/09/23 11:33:56;;;;;;;10.35;7.25;;;;;;;;;;4957115;29;20314;-80
2022/09/23 11:36:26;;;;;;;13.35;8.10;;;;;;;;;;4965893;28;20678;-80
2022/09/23 11:38:54;;;;;;;10.95;8.90;;;;;;;;;;4971402;28;20230;-80
2022/09/23 11:41:22;;;;;;;11.35;8.95;;;;;;;;;;4976708;28;20257;-81
2022/09/23 11:43:52;;;;;;;13.98;9.27;;;;;;;;;;4976513;28;20581;-80
2022/09/23 11:46:24;;;;;;;11.85;8.95;;;;;;;;;;4975994;28;20753;-80
2022/09/23 11:48:56;;;;;;;15.30;12.50;;;;;;;;;;4977060;28;20234;-80
2022/09/23 11:51:25;;;;;;;12.85;9.23;;;;;;;;;;4976642;28;20241;-80
2022/09/23 11:53:54;;;;;;;12.90;8.98;;;;;;;;;;4976637;28;20601;-80
2022/09/23 11:56:25;;;;;;;10.13;8.25;;;;;;;;;;4976126;28;20202;-80
2022/09/23 11:58:58;;;;;;;12.15;8.50;;;;;;;;;;4963919;28;20202;-80
2022/09/23 12:01:30;;;;;;;8.00;7.07;;;;;;;;;;4975225;28;20293;-80
2022/09/23 12:04:01;;;;;;;14.70;7.60;;;;;;;;;;4971023;28;20199;-80
2022/09/23 12:06:31;;;;;;;9.68;7.47;;;;;;;;;;4955650;28;20226;-80
2022/09/23 12:09:00;;;;;;;11.25;7.78;;;;;;;;;;4962401;28;20233;-80
2022/09/23 12:11:30;;;;;;;10.48;7.60;;;;;;;;;;4974949;28;20234;-80
2022/09/23 12:14:01;;;;;;;13.80;7.50;;;;;;;;;;4974797;28;20317;-80
2022/09/23 12:16:41;;;;;;;11.88;7.72;;;;;;;;;;4974386;28;20261;-80
2022/09/23 12:19:17;;;;;;;9.68;7.70;;;;;;;;;;4964157;28;20202;-80
2022/09/23 12:21:56;;;;;;;11.15;7.40;;;;;;;;;;4955814;28;20205;-80
2022/09/23 12:24:45;;;;;;;9.02;7.18;;;;;;;;;;4967613;28;20195;-80
2022/09/23 12:27:21;;;;;;;12.15;7.40;;;;;;;;;;4971217;28;20196;-80
2022/09/23 12:29:49;;;;;;;13.57;8.00;;;;;;;;;;4955296;28;20225;-80
2022/09/23 12:32:18;;;;;;;10.23;7.65;;;;;;;;;;4954604;28;21056;-80
2022/09/23 12:34:48;;;;;;;11.20;7.75;;;;;;;;;;4961654;28;20703;-80
2022/09/23 12:37:23;;;;;;;14.27;8.20;;;;;;;;;;4974093;28;20206;-80
2022/09/23 12:39:50;;;;;;;13.18;8.35;;;;;;;;;;4963124;28;20618;-80
2022/09/23 12:42:19;;;;;;;10.88;7.20;;;;;;;;;;4955750;28;20234;-80
2022/09/23 12:44:47;;;;;;;9.77;7.45;;;;;;;;;;4970592;28;20281;-79
2022/09/23 12:47:30;;;;;;;12.82;7.70;;;;;;;;;;4974734;28;20214;-80
2022/09/23 12:49:59;;;;;;;10.13;7.03;;;;;;;;;;4974779;28;20281;-80
2022/09/23 12:52:29;;;;;;;9.15;6.85;;;;;;;;;;4974269;28;20290;-80
2022/09/23 12:54:58;;;;;;;10.05;7.18;;;;;;;;;;4974453;28;20230;-80
2022/09/23 12:57:49;;;;;;;9.75;7.10;;;;;;;;;;4973555;28;20213;-80
2022/09/23 13:00:22;;;;;;;11.35;7.28;;;;;;;;;;4963176;28;20297;-80
2022/09/23 13:08:28;;;;;;;9.00;6.78;;;;;;;;;;4960534;28;20286;-80
2022/09/23 13:10:57;;;;;;;10.65;7.40;;;;;;;;;;4954368;28;20323;-81
2022/09/23 13:13:28;;;;;;;10.18;7.22;;;;;;;;;;4954209;28;20679;-81
2022/09/23 13:15:55;;;;;;;10.07;6.40;;;;;;;;;;4955214;28;20223;-80
2022/09/23 13:18:46;;;;;;;13.15;6.85;;;;;;;;;;4966572;28;20242;-80
2022/09/23 13:21:19;;;;;;;11.63;6.55;;;;;;;;;;4971818;28;20203;-80
2022/09/23 13:24:11;;;;;;;7.85;6.35;;;;;;;;;;4973845;28;20214;-81
2022/09/23 13:26:38;;;;;;;8.63;6.63;;;;;;;;;;4970011;28;20286;-80
2022/09/23 13:29:05;;;;;;;10.05;5.70;;;;;;;;;;4973198;28;20238;-81
2022/09/23 13:31:33;;;;;;;7.55;5.13;;;;;;;;;;4973333;28;20249;-80
2022/09/23 13:34:03;;;;;;;6.65;4.93;;;;;;;;;;4973576;28;20399;-81
2022/09/23 13:36:43;;;;;;;9.40;5.72;;;;;;;;;;4972321;28;20222;-81
2022/09/23 13:39:16;;;;;;;9.13;6.28;;;;;;;;;;4972155;28;20285;-81
2022/09/23 13:41:44;;;;;;;8.10;4.97;;;;;;;;;;4964746;28;20375;-80
2022/09/23 13:44:18;;;;;;;7.57;4.90;;;;;;;;;;4965168;28;20237;-81
2022/09/23 13:46:46;;;;;;;5.93;4.68;;;;;;;;;;4972948;28;20209;-80
2022/09/23 13:49:22;;;;;;;6.13;4.72;;;;;;;;;;4953819;28;20293;-81
2022/09/23 13:51:53;;;;;;;6.97;4.88;;;;;;;;;;4953772;28;20213;-80
2022/09/23 13:54:28;;;;;;;8.20;4.80;;;;;;;;;;4954266;28;20207;-81
2022/09/23 13:56:56;;;;;;;8.23;5.45;;;;;;;;;;4953567;29;20207;-80
2022/09/23 13:59:25;;;;;;;7.50;5.25;;;;;;;;;;4953836;29;20203;-81
2022/09/23 14:02:02;;;;;;;11.35;5.50;;;;;;;;;;4960375;28;20678;-80
2022/09/23 14:04:30;;;;;;;12.95;5.65;;;;;;;;;;4972339;28;20252;-81
2022/09/23 14:06:58;;;;;;;10.98;5.82;;;;;;;;;;4969131;28;20235;-81
2022/09/23 14:09:27;;;;;;;7.70;5.80;;;;;;;;;;4952939;28;20234;-81
2022/09/23 14:11:55;;;;;;;7.65;5.22;;;;;;;;;;4963508;28;20290;-80
2022/09/23 14:14:23;;;;;;;9.75;5.85;;;;;;;;;;4972953;28;20758;-80
2022/09/23 14:16:51;;;;;;;7.85;5.63;;;;;;;;;;4972840;28;20293;-80
2022/09/23 14:19:19;;;;;;;9.93;5.63;;;;;;;;;;4972387;28;20289;-80
2022/09/23 14:21:48;;;;;;;7.30;5.43;;;;;;;;;;4955548;28;20290;-81
2022/09/23 14:24:18;;;;;;;7.13;5.00;;;;;;;;;;4954254;28;20286;-80
2022/09/23 14:26:47;;;;;;;7.68;5.07;;;;;;;;;;4967326;28;20230;-80
2022/09/23 14:29:15;;;;;;;8.52;5.22;;;;;;;;;;4973135;28;20229;-80
2022/09/23 14:31:55;;;;;;;7.40;5.20;;;;;;;;;;4976161;28;20225;-81
2022/09/23 14:34:42;;;;;;;7.45;5.20;;;;;;;;;;4976013;28;20210;-80
2022/09/23 14:40:06;;;;;;;7.53;5.25;;;;;;;;;;4970120;28;20206;-80
2022/09/23 14:42:39;;;;;;;7.88;5.72;;;;;;;;;;4969060;28;20238;-80
2022/09/23 14:45:08;;;;;;;11.82;5.47;;;;;;;;;;4973534;28;20209;-81
2022/09/23 14:47:36;;;;;;;10.88;6.05;;;;;;;;;;4975414;28;20285;-80
2022/09/23 14:52:49;;;;;;;10.93;6.45;;;;;;;;;;4976096;28;20210;-80
2022/09/23 14:55:18;;;;;;;10.30;7.25;;;;;;;;;;4975572;28;20312;-80
2022/09/23 14:57:46;;;;;;;9.45;7.35;;;;;;;;;;4973707;28;20202;-81
2022/09/23 15:00:16;;;;;;;10.52;7.43;;;;;;;;;;4969889;28;20289;-81
2022/09/23 15:02:44;;;;;;;10.90;8.25;;;;;;;;;;4975163;28;20723;-83
2022/09/23 15:05:16;;;;;;;8.10;7.30;;;;;;;;;;4970472;28;20289;-80
2022/09/23 15:07:45;;;;;;;11.15;7.38;;;;;;;;;;4967899;28;20314;-81
2022/09/23 15:10:17;;;;;;;8.88;7.97;;;;;;;;;;4964662;28;20317;-81
2022/09/23 15:12:48;;;;;;;10.35;7.90;;;;;;;;;;4966486;28;20244;-81
2022/09/23 15:15:16;;;;;;;12.98;7.95;;;;;;;;;;4965383;28;20243;-81